Time,TemperatureF,DewpointF,PressureIn,WindDirection,WindDirectionDegrees,WindSpeedMPH,WindSpeedGustMPH,Humidity,HourlyPrecipIn,Conditions,Clouds,dailyrainin,SoftwareType,DateUTC
2013-03-19 00:01:00,32.6,29.1,29.73,ENE,67,4.0,-999.0,86,0.00,,,0.00,MetarLogicWeatherSta,2013-03-19 04:01:00,
2013-03-19 00:06:00,32.6,29.0,29.72,ENE,67,7.0,-999.0,86,0.00,,,0.00,MetarLogicWeatherSta,2013-03-19 04:06:00,
2013-03-19 00:11:00,32.6,29.0,29.72,East,90,7.0,-999.0,86,0.00,,,0.00,MetarLogicWeatherSta,2013-03-19 04:11:00,
2013-03-19 00:16:00,32.8,29.2,29.71,East,90,10.0,-999.0,86,0.00,,,0.00,MetarLogicWeatherSta,2013-03-19 04:16:00,
2013-03-19 00:21:00,32.8,29.3,29.71,NE,45,6.0,-999.0,86,0.00,,,0.00,MetarLogicWeatherSta,2013-03-19 04:21:00,
2013-03-19 00:26:00,32.9,29.3,29.71,ENE,67,3.0,-999.0,86,0.00,,,0.00,MetarLogicWeatherSta,2013-03-19 04:26:00,
2013-03-19 00:31:00,33.0,29.4,29.71,ENE,67,1.0,-999.0,86,0.00,,,0.00,MetarLogicWeatherSta,2013-03-19 04:31:00,
2013-03-19 00:36:00,32.9,29.2,29.71,NE,45,4.0,-999.0,86,0.00,,,0.00,MetarLogicWeatherSta,2013-03-19 04:36:00,
2013-03-19 00:41:00,33.0,29.3,29.70,ENE,67,1.0,-999.0,86,0.00,,,0.00,MetarLogicWeatherSta,2013-03-19 04:41:00,
2013-03-19 00:46:00,33.1,29.5,29.70,East,90,3.0,-999.0,86,0.00,,,0.00,MetarLogicWeatherSta,2013-03-19 04:46:00,
2013-03-19 00:51:00,33.0,29.3,29.69,East,90,3.0,-999.0,86,0.00,,,0.00,MetarLogicWeatherSta,2013-03-19 04:51:00,
2013-03-19 00:56:00,33.0,29.4,29.69,ENE,67,3.0,-999.0,86,0.00,,,0.00,MetarLogicWeatherSta,2013-03-19 04:56:00,
2013-03-19 01:02:00,32.9,29.4,29.69,SE,135,1.0,-999.0,86,0.01,,,0.01,MetarLogicWeatherSta,2013-03-19 05:02:00,
2013-03-19 01:07:00,32.8,29.0,29.69,SSE,157,0.0,-999.0,85,0.01,,,0.01,MetarLogicWeatherSta,2013-03-19 05:07:00,
2013-03-19 01:12:00,32.9,29.5,29.69,ESE,112,0.0,-999.0,87,0.01,,,0.01,MetarLogicWeatherSta,2013-03-19 05:12:00,
2013-03-19 01:17:00,33.3,29.9,29.69,South,180,0.0,-999.0,87,0.01,,,0.01,MetarLogicWeatherSta,2013-03-19 05:17:00,
2013-03-19 01:22:00,33.3,29.7,29.69,NNE,22,1.0,-999.0,86,0.01,,,0.01,MetarLogicWeatherSta,2013-03-19 05:22:00,
2013-03-19 01:27:00,33.5,29.7,29.67,ENE,67,3.0,-999.0,85,0.01,,,0.01,MetarLogicWeatherSta,2013-03-19 05:27:00,
2013-03-19 01:32:00,33.8,29.7,29.68,ENE,67,4.0,-999.0,84,0.01,,,0.01,MetarLogicWeatherSta,2013-03-19 05:32:00,
2013-03-19 01:37:00,33.9,29.7,29.68,NE,45,7.0,-999.0,84,0.01,,,0.01,MetarLogicWeatherSta,2013-03-19 05:37:00,
2013-03-19 01:42:00,33.9,29.7,29.67,West,270,3.0,-999.0,84,0.01,,,0.01,MetarLogicWeatherSta,2013-03-19 05:42:00,
2013-03-19 01:47:00,33.9,29.6,29.67,West,270,3.0,-999.0,83,0.01,,,0.01,MetarLogicWeatherSta,2013-03-19 05:47:00,
2013-03-19 01:52:00,33.9,29.6,29.67,SSW,202,4.0,-999.0,83,0.02,,,0.02,MetarLogicWeatherSta,2013-03-19 05:52:00,
2013-03-19 01:57:00,34.0,29.4,29.67,SSW,202,1.0,-999.0,83,0.01,,,0.02,MetarLogicWeatherSta,2013-03-19 05:57:00,
2013-03-19 02:02:00,33.9,29.7,29.67,SE,135,0.0,-999.0,84,0.01,,,0.02,MetarLogicWeatherSta,2013-03-19 06:02:00,
2013-03-19 02:09:00,33.9,29.7,29.68,NE,45,1.0,-999.0,84,0.01,,,0.02,MetarLogicWeatherSta,2013-03-19 06:09:00,
2013-03-19 02:14:00,34.0,29.8,29.68,East,90,1.0,-999.0,84,0.01,,,0.02,MetarLogicWeatherSta,2013-03-19 06:14:00,
2013-03-19 02:19:00,33.9,29.6,29.67,ENE,67,4.0,-999.0,84,0.01,,,0.02,MetarLogicWeatherSta,2013-03-19 06:19:00,
2013-03-19 02:24:00,33.9,29.6,29.67,South,180,0.0,-999.0,84,0.01,,,0.02,MetarLogicWeatherSta,2013-03-19 06:24:00,
2013-03-19 02:29:00,34.0,29.9,29.67,East,90,4.0,-999.0,84,0.01,,,0.02,MetarLogicWeatherSta,2013-03-19 06:29:00,
2013-03-19 02:34:00,34.1,29.9,29.67,ENE,67,6.0,-999.0,84,0.01,,,0.02,MetarLogicWeatherSta,2013-03-19 06:34:00,
2013-03-19 02:39:00,33.9,29.7,29.67,ENE,67,7.0,-999.0,84,0.01,,,0.02,MetarLogicWeatherSta,2013-03-19 06:39:00,
2013-03-19 02:44:00,34.3,29.9,29.67,ENE,67,4.0,-999.0,83,0.01,,,0.02,MetarLogicWeatherSta,2013-03-19 06:44:00,
2013-03-19 02:49:00,34.3,29.9,29.67,East,90,1.0,-999.0,83,0.01,,,0.02,MetarLogicWeatherSta,2013-03-19 06:49:00,
2013-03-19 02:54:00,34.3,30.0,29.66,SE,135,0.0,-999.0,83,0.01,,,0.03,MetarLogicWeatherSta,2013-03-19 06:54:00,
2013-03-19 02:59:00,34.1,29.9,29.67,SW,225,0.0,-999.0,84,0.01,,,0.03,MetarLogicWeatherSta,2013-03-19 06:59:00,
2013-03-19 03:07:00,34.4,30.1,29.67,ESE,112,0.0,-999.0,84,0.01,,,0.03,MetarLogicWeatherSta,2013-03-19 07:07:00,
2013-03-19 03:12:00,34.3,29.9,29.67,SSE,157,0.0,-999.0,83,0.01,,,0.03,MetarLogicWeatherSta,2013-03-19 07:12:00,
2013-03-19 03:17:00,34.3,30.1,29.67,WSW,247,0.0,-999.0,84,0.01,,,0.03,MetarLogicWeatherSta,2013-03-19 07:17:00,
2013-03-19 03:22:00,34.4,30.2,29.67,ENE,67,6.0,-999.0,84,0.02,,,0.04,MetarLogicWeatherSta,2013-03-19 07:22:00,
2013-03-19 03:27:00,34.4,30.3,29.67,SSE,157,3.0,-999.0,84,0.02,,,0.04,MetarLogicWeatherSta,2013-03-19 07:27:00,
2013-03-19 03:32:00,34.3,30.0,29.66,NW,315,3.0,-999.0,83,0.02,,,0.04,MetarLogicWeatherSta,2013-03-19 07:32:00,
2013-03-19 03:37:00,34.6,30.2,29.66,SW,225,1.0,-999.0,83,0.02,,,0.04,MetarLogicWeatherSta,2013-03-19 07:37:00,
2013-03-19 03:42:00,34.7,30.4,29.66,ENE,67,1.0,-999.0,84,0.02,,,0.04,MetarLogicWeatherSta,2013-03-19 07:42:00,
2013-03-19 03:48:00,34.5,30.2,29.66,ENE,67,3.0,-999.0,83,0.02,,,0.04,MetarLogicWeatherSta,2013-03-19 07:48:00,
2013-03-19 03:53:00,34.6,29.8,29.66,South,180,1.0,-999.0,82,0.02,,,0.04,MetarLogicWeatherSta,2013-03-19 07:53:00,
2013-03-19 03:58:00,34.4,30.1,29.65,East,90,1.0,-999.0,83,0.01,,,0.04,MetarLogicWeatherSta,2013-03-19 07:58:00,
2013-03-19 04:03:00,34.5,30.2,29.65,East,90,1.0,-999.0,84,0.01,,,0.04,MetarLogicWeatherSta,2013-03-19 08:03:00,
2013-03-19 04:08:00,34.4,30.0,29.65,SSE,157,3.0,-999.0,83,0.01,,,0.04,MetarLogicWeatherSta,2013-03-19 08:08:00,
2013-03-19 04:13:00,34.5,30.3,29.66,East,90,0.0,-999.0,84,0.02,,,0.05,MetarLogicWeatherSta,2013-03-19 08:13:00,
2013-03-19 04:18:00,34.5,30.2,29.66,SSW,202,1.0,-999.0,84,0.02,,,0.05,MetarLogicWeatherSta,2013-03-19 08:18:00,
2013-03-19 04:23:00,34.4,30.2,29.66,East,90,3.0,-999.0,84,0.02,,,0.05,MetarLogicWeatherSta,2013-03-19 08:23:00,
2013-03-19 04:28:00,34.5,30.4,29.67,SSE,157,0.0,-999.0,85,0.01,,,0.05,MetarLogicWeatherSta,2013-03-19 08:28:00,
2013-03-19 04:33:00,34.3,30.1,29.66,South,180,0.0,-999.0,84,0.01,,,0.05,MetarLogicWeatherSta,2013-03-19 08:33:00,
2013-03-19 04:38:00,34.4,30.5,29.67,South,180,0.0,-999.0,85,0.01,,,0.05,MetarLogicWeatherSta,2013-03-19 08:38:00,
2013-03-19 04:43:00,34.3,30.1,29.67,SSE,157,0.0,-999.0,84,0.02,,,0.06,MetarLogicWeatherSta,2013-03-19 08:43:00,
2013-03-19 04:48:00,34.4,30.2,29.66,SE,135,1.0,-999.0,84,0.02,,,0.06,MetarLogicWeatherSta,2013-03-19 08:48:00,
2013-03-19 04:53:00,34.4,30.3,29.67,SSE,157,0.0,-999.0,84,0.02,,,0.06,MetarLogicWeatherSta,2013-03-19 08:53:00,
2013-03-19 04:58:00,34.5,30.4,29.67,SSE,157,0.0,-999.0,85,0.02,,,0.06,MetarLogicWeatherSta,2013-03-19 08:58:00,
2013-03-19 05:03:00,34.2,30.2,29.67,SSE,157,0.0,-999.0,85,0.02,,,0.06,MetarLogicWeatherSta,2013-03-19 09:03:00,
2013-03-19 05:08:00,34.1,30.1,29.67,SSE,157,0.0,-999.0,85,0.02,,,0.06,MetarLogicWeatherSta,2013-03-19 09:08:00,
2013-03-19 05:13:00,33.8,29.9,29.67,SSE,157,0.0,-999.0,85,0.01,,,0.06,MetarLogicWeatherSta,2013-03-19 09:13:00,
2013-03-19 05:18:00,33.6,29.8,29.67,SSE,157,0.0,-999.0,85,0.01,,,0.06,MetarLogicWeatherSta,2013-03-19 09:18:00,
2013-03-19 05:23:00,33.6,30.1,29.67,South,180,0.0,-999.0,86,0.01,,,0.06,MetarLogicWeatherSta,2013-03-19 09:23:00,
2013-03-19 05:28:00,33.7,30.4,29.67,South,180,1.0,-999.0,87,0.01,,,0.06,MetarLogicWeatherSta,2013-03-19 09:28:00,
2013-03-19 05:33:00,34.0,30.5,29.68,SSE,157,0.0,-999.0,87,0.01,,,0.06,MetarLogicWeatherSta,2013-03-19 09:33:00,
2013-03-19 05:38:00,34.1,30.6,29.68,SSE,157,0.0,-999.0,86,0.01,,,0.06,MetarLogicWeatherSta,2013-03-19 09:38:00,
2013-03-19 05:43:00,34.3,30.9,29.67,SSE,157,0.0,-999.0,87,0.00,,,0.06,MetarLogicWeatherSta,2013-03-19 09:43:00,
2013-03-19 05:48:00,34.2,30.5,29.67,SSE,157,0.0,-999.0,86,0.00,,,0.06,MetarLogicWeatherSta,2013-03-19 09:48:00,
2013-03-19 05:53:00,34.3,30.7,29.67,East,90,0.0,-999.0,86,0.00,,,0.06,MetarLogicWeatherSta,2013-03-19 09:53:00,
2013-03-19 05:58:00,34.3,30.6,29.68,SSE,157,0.0,-999.0,86,0.01,,,0.07,MetarLogicWeatherSta,2013-03-19 09:58:00,
2013-03-19 06:03:00,34.3,30.6,29.68,SSE,157,0.0,-999.0,86,0.01,,,0.07,MetarLogicWeatherSta,2013-03-19 10:03:00,
2013-03-19 06:08:00,34.1,30.2,29.68,SSE,157,0.0,-999.0,85,0.01,,,0.07,MetarLogicWeatherSta,2013-03-19 10:08:00,
2013-03-19 06:13:00,34.1,30.7,29.69,SSE,157,0.0,-999.0,87,0.01,,,0.07,MetarLogicWeatherSta,2013-03-19 10:13:00,
2013-03-19 06:18:00,34.1,30.6,29.69,SSE,162,0.0,1.0,87,0.01,,,0.07,MetarLogicWeatherSta,2013-03-19 10:18:00,
2013-03-19 06:23:00,34.0,30.7,29.69,South,186,0.0,1.0,87,0.01,,,0.07,MetarLogicWeatherSta,2013-03-19 10:23:00,
2013-03-19 06:28:00,34.1,30.8,29.70,SSE,157,0.0,-999.0,87,0.01,,,0.07,MetarLogicWeatherSta,2013-03-19 10:28:00,
2013-03-19 06:33:00,34.0,30.7,29.69,SSE,157,0.0,-999.0,87,0.01,,,0.07,MetarLogicWeatherSta,2013-03-19 10:33:00,
2013-03-19 06:38:00,33.8,30.4,29.70,SSE,157,0.0,-999.0,87,0.01,,,0.07,MetarLogicWeatherSta,2013-03-19 10:38:00,
2013-03-19 06:43:00,33.6,30.3,29.71,SSE,157,0.0,-999.0,87,0.01,,,0.07,MetarLogicWeatherSta,2013-03-19 10:43:00,
2013-03-19 06:48:00,33.4,30.3,29.71,SSE,157,0.0,-999.0,88,0.02,,,0.08,MetarLogicWeatherSta,2013-03-19 10:48:00,
2013-03-19 06:53:00,33.1,29.9,29.71,SSE,157,0.0,-999.0,87,0.02,,,0.08,MetarLogicWeatherSta,2013-03-19 10:53:00,
2013-03-19 06:58:00,33.0,29.9,29.71,SSE,157,0.0,-999.0,88,0.01,,,0.08,MetarLogicWeatherSta,2013-03-19 10:58:00,
2013-03-19 07:03:00,32.6,29.9,29.71,SSE,157,0.0,-999.0,89,0.01,,,0.08,MetarLogicWeatherSta,2013-03-19 11:03:00,
2013-03-19 07:08:00,32.8,30.2,29.71,SSE,157,0.0,-999.0,89,0.01,,,0.08,MetarLogicWeatherSta,2013-03-19 11:08:00,
2013-03-19 07:13:00,32.8,30.3,29.71,South,180,0.0,-999.0,90,0.01,,,0.08,MetarLogicWeatherSta,2013-03-19 11:13:00,
2013-03-19 07:18:00,33.0,30.4,29.72,SSE,157,0.0,-999.0,90,0.01,,,0.08,MetarLogicWeatherSta,2013-03-19 11:18:00,
2013-03-19 07:23:00,33.0,30.5,29.72,SE,135,0.0,-999.0,90,0.01,,,0.08,MetarLogicWeatherSta,2013-03-19 11:23:00,
2013-03-19 07:28:00,33.0,30.5,29.72,SSE,157,0.0,-999.0,90,0.01,,,0.08,MetarLogicWeatherSta,2013-03-19 11:28:00,
2013-03-19 07:33:00,33.1,30.6,29.72,SSE,157,0.0,-999.0,90,0.01,,,0.08,MetarLogicWeatherSta,2013-03-19 11:33:00,
2013-03-19 07:38:00,32.9,30.4,29.71,SSE,157,0.0,-999.0,90,0.01,,,0.08,MetarLogicWeatherSta,2013-03-19 11:38:00,
2013-03-19 07:43:00,32.8,30.4,29.72,SSE,157,0.0,-999.0,90,0.01,,,0.08,MetarLogicWeatherSta,2013-03-19 11:43:00,
2013-03-19 07:48:00,33.0,30.5,29.71,SE,135,0.0,-999.0,90,0.00,,,0.08,MetarLogicWeatherSta,2013-03-19 11:48:00,
2013-03-19 07:53:00,32.8,30.4,29.71,SE,135,0.0,-999.0,90,0.00,,,0.08,MetarLogicWeatherSta,2013-03-19 11:53:00,
2013-03-19 07:58:00,32.8,30.5,29.71,SSE,157,0.0,-999.0,91,0.00,,,0.08,MetarLogicWeatherSta,2013-03-19 11:58:00,
2013-03-19 08:03:00,32.6,30.4,29.71,SE,135,0.0,-999.0,91,0.00,,,0.08,MetarLogicWeatherSta,2013-03-19 12:03:00,
2013-03-19 08:08:00,32.6,30.4,29.71,SE,135,0.0,-999.0,91,0.00,,,0.08,MetarLogicWeatherSta,2013-03-19 12:08:00,
2013-03-19 08:13:00,32.7,30.6,29.71,SSE,157,0.0,-999.0,91,0.00,,,0.08,MetarLogicWeatherSta,2013-03-19 12:13:00,
2013-03-19 08:18:00,32.8,30.7,29.71,SE,135,0.0,-999.0,91,0.00,,,0.08,MetarLogicWeatherSta,2013-03-19 12:18:00,
2013-03-19 08:23:00,32.8,30.8,29.71,SE,135,0.0,-999.0,91,0.00,,,0.08,MetarLogicWeatherSta,2013-03-19 12:23:00,
2013-03-19 08:28:00,32.9,30.8,29.71,SE,135,0.0,-999.0,91,0.00,,,0.08,MetarLogicWeatherSta,2013-03-19 12:28:00,
2013-03-19 08:33:00,33.0,31.0,29.71,SSE,157,0.0,-999.0,92,0.01,,,0.09,MetarLogicWeatherSta,2013-03-19 12:33:00,
2013-03-19 08:38:00,33.0,31.0,29.71,SSE,157,0.0,-999.0,92,0.01,,,0.09,MetarLogicWeatherSta,2013-03-19 12:38:00,
2013-03-19 08:43:00,33.1,31.2,29.71,SE,135,0.0,-999.0,92,0.01,,,0.09,MetarLogicWeatherSta,2013-03-19 12:43:00,
2013-03-19 08:48:00,33.1,31.2,29.71,SE,135,0.0,-999.0,92,0.01,,,0.09,MetarLogicWeatherSta,2013-03-19 12:48:00,
2013-03-19 08:53:00,33.5,31.5,29.71,SSE,157,0.0,-999.0,92,0.01,,,0.09,MetarLogicWeatherSta,2013-03-19 12:53:00,
2013-03-19 08:58:00,33.4,31.5,29.71,SSE,157,0.0,-999.0,92,0.02,,,0.10,MetarLogicWeatherSta,2013-03-19 12:58:00,
2013-03-19 09:03:00,33.5,31.6,29.71,SE,135,0.0,-999.0,92,0.02,,,0.10,MetarLogicWeatherSta,2013-03-19 13:03:00,
2013-03-19 09:09:00,33.5,31.6,29.71,SSE,157,0.0,-999.0,92,0.02,,,0.10,MetarLogicWeatherSta,2013-03-19 13:09:00,
2013-03-19 09:14:00,33.7,31.9,29.71,SE,135,0.0,-999.0,92,0.02,,,0.10,MetarLogicWeatherSta,2013-03-19 13:14:00,
2013-03-19 09:19:00,33.9,31.9,29.70,SE,135,0.0,-999.0,92,0.02,,,0.10,MetarLogicWeatherSta,2013-03-19 13:19:00,
2013-03-19 09:24:00,33.9,31.9,29.70,South,180,0.0,-999.0,92,0.02,,,0.10,MetarLogicWeatherSta,2013-03-19 13:24:00,
2013-03-19 09:29:00,34.1,32.0,29.70,SE,139,0.2,3.0,91,0.01,,,0.10,MetarLogicWeatherSta,2013-03-19 13:29:00,
2013-03-19 09:34:00,34.3,32.1,29.69,SSE,148,0.1,4.0,91,0.01,,,0.10,MetarLogicWeatherSta,2013-03-19 13:34:00,
2013-03-19 09:39:00,34.3,32.0,29.69,ESE,112,0.0,-999.0,91,0.01,,,0.10,MetarLogicWeatherSta,2013-03-19 13:39:00,
2013-03-19 09:44:00,34.6,32.2,29.69,East,90,3.0,-999.0,90,0.02,,,0.11,MetarLogicWeatherSta,2013-03-19 13:44:00,
2013-03-19 09:49:00,34.5,31.6,29.69,ENE,67,4.0,-999.0,89,0.02,,,0.11,MetarLogicWeatherSta,2013-03-19 13:49:00,
2013-03-19 09:54:00,34.5,31.9,29.69,East,90,3.0,-999.0,90,0.03,,,0.12,MetarLogicWeatherSta,2013-03-19 13:54:00,
2013-03-19 10:00:00,34.6,31.7,29.69,NE,45,0.0,-999.0,89,0.02,,,0.12,MetarLogicWeatherSta,2013-03-19 14:00:00,
2013-03-19 10:05:00,34.5,31.5,29.68,ENE,67,0.0,-999.0,88,0.02,,,0.12,MetarLogicWeatherSta,2013-03-19 14:05:00,
2013-03-19 10:10:00,34.9,31.5,29.68,SE,135,0.0,-999.0,87,0.02,,,0.12,MetarLogicWeatherSta,2013-03-19 14:10:00,
2013-03-19 10:15:00,34.9,30.7,29.68,SSE,157,0.0,-999.0,84,0.02,,,0.12,MetarLogicWeatherSta,2013-03-19 14:15:00,
2013-03-19 10:20:00,35.2,30.3,29.68,ENE,67,4.0,-999.0,82,0.03,,,0.13,MetarLogicWeatherSta,2013-03-19 14:20:00,
2013-03-19 10:25:00,35.6,30.5,29.68,East,90,1.0,-999.0,81,0.03,,,0.13,MetarLogicWeatherSta,2013-03-19 14:25:00,
2013-03-19 10:30:00,35.7,30.2,29.67,ESE,112,1.0,-999.0,80,0.04,,,0.14,MetarLogicWeatherSta,2013-03-19 14:30:00,
2013-03-19 10:35:00,35.9,30.2,29.67,ESE,112,0.0,-999.0,79,0.04,,,0.14,MetarLogicWeatherSta,2013-03-19 14:35:00,
2013-03-19 10:40:00,36.1,30.1,29.67,East,90,3.0,-999.0,78,0.03,,,0.14,MetarLogicWeatherSta,2013-03-19 14:40:00,
2013-03-19 10:45:00,36.3,30.4,29.67,SSE,157,0.0,-999.0,79,0.03,,,0.14,MetarLogicWeatherSta,2013-03-19 14:45:00,
2013-03-19 10:50:00,36.3,30.5,29.67,SE,135,0.0,-999.0,79,0.04,,,0.15,MetarLogicWeatherSta,2013-03-19 14:50:00,
2013-03-19 10:55:00,36.4,30.5,29.67,ENE,67,1.0,-999.0,79,0.03,,,0.15,MetarLogicWeatherSta,2013-03-19 14:55:00,
2013-03-19 11:00:00,36.4,30.5,29.67,East,90,1.0,-999.0,78,0.04,,,0.16,MetarLogicWeatherSta,2013-03-19 15:00:00,
2013-03-19 11:05:00,36.1,30.3,29.67,SSE,157,0.0,-999.0,79,0.04,,,0.16,MetarLogicWeatherSta,2013-03-19 15:05:00,
2013-03-19 11:10:00,36.1,30.5,29.67,SSW,202,0.0,-999.0,80,0.04,,,0.16,MetarLogicWeatherSta,2013-03-19 15:10:00,
2013-03-19 11:15:00,36.2,30.8,29.67,SSW,202,0.0,-999.0,80,0.04,,,0.16,MetarLogicWeatherSta,2013-03-19 15:15:00,
2013-03-19 11:20:00,35.8,30.5,29.67,South,180,0.0,-999.0,80,0.04,,,0.16,MetarLogicWeatherSta,2013-03-19 15:20:00,
2013-03-19 11:25:00,35.5,30.5,29.68,South,180,0.0,-999.0,81,0.04,,,0.17,MetarLogicWeatherSta,2013-03-19 15:25:00,
2013-03-19 11:30:00,35.4,30.5,29.68,SSW,202,1.0,-999.0,82,0.03,,,0.17,MetarLogicWeatherSta,2013-03-19 15:30:00,
2013-03-19 11:35:00,35.3,30.4,29.67,SSW,202,0.0,-999.0,82,0.03,,,0.17,MetarLogicWeatherSta,2013-03-19 15:35:00,
2013-03-19 11:40:00,35.3,30.3,29.68,SSW,202,0.0,-999.0,81,0.03,,,0.17,MetarLogicWeatherSta,2013-03-19 15:40:00,
2013-03-19 11:48:00,35.2,29.9,29.68,SSW,202,1.0,-999.0,81,0.04,,,0.18,MetarLogicWeatherSta,2013-03-19 15:48:00,
2013-03-19 11:53:00,35.0,29.5,29.69,SW,225,1.0,-999.0,80,0.03,,,0.18,MetarLogicWeatherSta,2013-03-19 15:53:00,
2013-03-19 11:58:00,34.4,28.9,29.69,WSW,239,2.9,9.0,80,0.02,,,0.18,MetarLogicWeatherSta,2013-03-19 15:58:00,
2013-03-19 12:03:00,33.6,28.6,29.69,SSW,202,4.0,-999.0,81,0.02,,,0.18,MetarLogicWeatherSta,2013-03-19 16:03:00,
2013-03-19 12:08:00,33.0,28.4,29.69,SW,225,4.0,-999.0,82,0.02,,,0.18,MetarLogicWeatherSta,2013-03-19 16:08:00,
2013-03-19 12:13:00,32.6,28.1,29.70,South,180,4.0,-999.0,83,0.02,,,0.18,MetarLogicWeatherSta,2013-03-19 16:13:00,
2013-03-19 12:18:00,32.0,27.0,29.70,SW,225,4.0,-999.0,81,0.02,,,0.18,MetarLogicWeatherSta,2013-03-19 16:18:00,
2013-03-19 12:23:00,31.6,27.2,29.71,South,180,1.0,-999.0,83,0.01,,,0.18,MetarLogicWeatherSta,2013-03-19 16:23:00,
2013-03-19 12:28:00,31.3,27.1,29.71,SSW,202,4.0,-999.0,84,0.02,,,0.19,MetarLogicWeatherSta,2013-03-19 16:28:00,
2013-03-19 12:35:00,31.2,27.1,29.71,South,180,1.0,-999.0,84,0.02,,,0.19,MetarLogicWeatherSta,2013-03-19 16:35:00,
2013-03-19 12:40:00,31.2,27.5,29.71,SW,225,3.0,-999.0,86,0.02,,,0.19,MetarLogicWeatherSta,2013-03-19 16:40:00,
2013-03-19 12:45:00,31.4,27.8,29.70,SW,225,3.0,-999.0,86,0.01,,,0.19,MetarLogicWeatherSta,2013-03-19 16:45:00,
2013-03-19 12:50:00,31.4,27.3,29.69,SSW,202,4.0,-999.0,84,0.01,,,0.19,MetarLogicWeatherSta,2013-03-19 16:50:00,
2013-03-19 12:55:00,31.4,26.8,29.69,SSW,202,3.0,-999.0,82,0.02,,,0.20,MetarLogicWeatherSta,2013-03-19 16:55:00,
2013-03-19 13:03:00,32.6,27.2,29.69,SW,225,4.0,-999.0,80,0.02,,,0.20,MetarLogicWeatherSta,2013-03-19 17:03:00,